Time;durP1;ratioP1;P1;durP2;ratioP2;P2;SDS_P1;SDS_P2;PMS_P1;PMS_P2;Temp;Humidity;BMP_temperature;BMP_pressure;BME280_temperature;BME280_humidity;BME280_pressure;Samples;Min_cycle;Max_cycle;Signal;HPM_P1;HPM_P2
2021/01/28 00:00:19;;;;;;;;;;;;;;;7.98;52.74;100032.41;6170847;23;20209;-76
2021/01/28 00:02:47;;;;;;;;;;;;;;;7.96;52.36;100027.19;6172494;23;19920;-76
2021/01/28 00:05:18;;;;;;;;;;;;;;;7.95;52.33;100033.34;6179015;23;19995;-76
2021/01/28 00:07:45;;;;;;;;;;;;;;;7.94;52.73;100026.34;6150000;23;20337;-75
2021/01/28 00:10:15;;;;;;;;;;;;;;;7.93;53.15;100029.03;6172217;23;19932;-77
2021/01/28 00:12:42;;;;;;;;;;;;;;;7.91;53.01;100022.97;6171376;23;19928;-76
2021/01/28 00:15:10;;;;;;;;;;;;;;;7.89;52.45;100015.09;6166877;23;19978;-76
2021/01/28 00:17:37;;;;;;;;;;;;;;;7.88;53.08;100015.13;6164675;23;19931;-76
2021/01/28 00:20:08;;;;;;;;;;;;;;;7.86;53.23;100011.69;6172115;23;20777;-76
2021/01/28 00:22:35;;;;;;;;;;;;;;;7.83;53.04;100002.09;6171279;23;19978;-76
2021/01/28 00:25:03;;;;;;;;;;;;;;;7.85;52.98;100002.91;6172742;23;19924;-76
2021/01/28 00:27:31;;;;;;;;;;;;;;;7.84;52.99;99995.06;6172295;23;19924;-76
2021/01/28 00:29:58;;;;;;;;;;;;;;;7.84;52.90;99995.06;6166448;23;20324;-77
2021/01/28 00:32:25;;;;;;;;;;;;;;;7.85;53.15;99983.63;6165337;23;20022;-77
2021/01/28 00:34:52;;;;;;;;;;;;;;;7.85;53.00;99975.72;6170242;23;19935;-76
2021/01/28 00:37:19;;;;;;;;;;;;;;;7.87;52.82;99972.13;6171373;23;19928;-76
2021/01/28 00:39:47;;;;;;;;;;;;;;;7.92;53.34;99977.28;6172646;23;19925;-76
2021/01/28 00:42:14;;;;;;;;;;;;;;;7.94;52.77;99976.31;6169963;23;20462;-76
2021/01/28 00:44:42;;;;;;;;;;;;;;;7.97;52.74;99965.72;6166434;23;20340;-76
2021/01/28 00:47:10;;;;;;;;;;;;;;;7.99;53.10;99963.03;6166188;23;19921;-77
2021/01/28 00:49:37;;;;;;;;;;;;;;;8.03;52.60;99959.38;6171797;23;20407;-77
2021/01/28 00:52:05;;;;;;;;;;;;;;;8.03;52.64;99950.63;6169128;23;19931;-76
2021/01/28 00:54:31;;;;;;;;;;;;;;;8.07;53.01;99953.13;6170902;23;19931;-77
2021/01/28 00:56:58;;;;;;;;;;;;;;;8.10;52.65;99955.69;6168917;23;19924;-76
2021/01/28 00:59:25;;;;;;;;;;;;;;;8.08;53.13;99944.31;6163012;23;20474;-77
2021/01/28 01:01:53;;;;;;;;;;;;;;;8.11;53.13;99940.72;6167847;23;19925;-77
2021/01/28 01:04:20;;;;;;;;;;;;;;;8.10;52.72;99945.13;6172185;23;19995;-76
2021/01/28 01:06:47;;;;;;;;;;;;;;;8.09;52.56;99938.13;6169081;23;19971;-76
2021/01/28 01:09:15;;;;;;;;;;;;;;;8.10;52.87;99937.22;6169570;23;19994;-76
2021/01/28 01:11:50;;;;;;;;;;;;;;;8.11;53.02;99936.31;6141828;23;20058;-76
2021/01/28 01:14:18;;;;;;;;;;;;;;;8.09;53.27;99929.34;6168420;23;20004;-77
2021/01/28 01:16:45;;;;;;;;;;;;;;;8.10;52.90;99926.69;6174161;23;19924;-76
2021/01/28 01:19:19;;;;;;;;;;;;;;;8.08;53.06;99925.88;6176088;23;19924;-77
2021/01/28 01:22:08;;;;;;;;;;;;;;;8.06;53.10;99927.66;6177112;23;19924;-76
2021/01/28 01:24:37;;;;;;;;;;;;;;;8.07;53.32;99921.50;6171779;23;20574;-76
2021/01/28 01:27:04;;;;;;;;;;;;;;;8.04;53.15;99910.22;6164665;23;19931;-77
2021/01/28 01:29:31;;;;;;;;;;;;;;;8.03;53.32;99911.97;6162714;23;19926;-77
2021/01/28 01:32:36;;;;;;;;;;;;;;;8.01;52.99;99903.28;6152945;23;19948;-77
2021/01/28 01:35:24;;;;;;;;;;;;;;;8.00;53.32;99906.81;6173529;23;19955;-77
2021/01/28 01:37:54;;;;;;;;;;;;;;;8.00;53.37;99892.75;6169540;23;19932;-76
2021/01/28 01:40:24;;;;;;;;;;;;;;;7.98;53.19;99900.72;6169124;23;19924;-77
2021/01/28 01:42:51;;;;;;;;;;;;;;;7.96;53.20;99892.84;6165765;23;19927;-77
2021/01/28 01:45:28;;;;;;;;;;;;;;;7.95;53.18;99892.91;6146401;23;20247;-77
2021/01/28 01:48:01;;;;;;;;;;;;;;;7.94;52.97;99889.41;6171977;23;19970;-77
2021/01/28 01:50:36;;;;;;;;;;;;;;;7.94;53.34;99883.28;6173108;23;19924;-76
2021/01/28 01:53:05;;;;;;;;;;;;;;;7.93;53.22;99878.91;6179248;23;20354;-77
2021/01/28 01:55:34;;;;;;;;;;;;;;;7.91;53.26;99886.88;6170089;23;20034;-76
2021/01/28 01:58:07;;;;;;;;;;;;;;;7.91;53.31;99878.13;6169546;23;20374;-77
2021/01/28 02:00:53;;;;;;;;;;;;;;;7.89;53.81;99877.28;6151971;23;19924;-77
2021/01/28 02:03:25;;;;;;;;;;;;;;;7.86;53.41;99878.25;6148975;23;19927;-77
2021/01/28 02:06:22;;;;;;;;;;;;;;;7.83;53.58;99865.19;6137240;23;19920;-76
2021/01/28 02:09:24;;;;;;;;;;;;;;;7.82;53.52;99863.44;6079398;23;19925;-76
2021/01/28 02:12:13;;;;;;;;;;;;;;;7.79;53.67;99863.56;6143455;23;19972;-77
2021/01/28 02:14:54;;;;;;;;;;;;;;;7.78;53.59;99861.81;6170277;23;20295;-77
2021/01/28 02:17:42;;;;;;;;;;;;;;;7.76;53.59;99863.63;6145560;23;19932;-76
2021/01/28 02:20:31;;;;;;;;;;;;;;;7.75;53.68;99859.28;6166955;23;19924;-77
2021/01/28 02:23:33;;;;;;;;;;;;;;;7.73;53.62;99859.31;6165730;23;20477;-77
2021/01/28 02:26:04;;;;;;;;;;;;;;;7.72;53.68;99860.25;6171156;23;20288;-77
2021/01/28 02:28:32;;;;;;;;;;;;;;;7.74;53.27;99868.94;6146660;23;19928;-78
2021/01/28 02:31:02;;;;;;;;;;;;;;;7.75;53.85;99875.94;6145963;23;19999;-77
2021/01/28 02:33:36;;;;;;;;;;;;;;;7.75;54.06;99870.66;6146735;23;19982;-77
2021/01/28 02:36:39;;;;;;;;;;;;;;;7.80;53.91;99875.78;6054428;23;19961;-78
2021/01/28 02:39:26;;;;;;;;;;;;;;;7.84;53.54;99873.94;6168259;23;20022;-77
2021/01/28 02:41:57;;;;;;;;;;;;;;;8.03;52.48;99872.47;6172220;23;19943;-77
2021/01/28 02:44:26;;;;;;;;;;;;;;;8.19;51.25;99872.00;6170992;23;19924;-77
2021/01/28 02:47:13;;;;;;;;;;;;;;;8.34;49.68;99871.50;6171573;23;20312;-78
2021/01/28 02:50:00;;;;;;;;;;;;;;;8.45;47.74;99868.53;6167161;23;20111;-77
2021/01/28 02:52:27;;;;;;;;;;;;;;;8.52;47.02;99854.25;6167011;23;20337;-78
2021/01/28 02:55:02;;;;;;;;;;;;;;;8.41;48.64;99862.47;6170063;23;19931;-78
2021/01/28 02:57:30;;;;;;;;;;;;;;;8.41;49.35;99874.81;6145028;23;19954;-78
2021/01/28 03:00:00;;;;;;;;;;;;;;;8.42;49.63;99874.75;6172121;23;19931;-78
2021/01/28 03:02:27;;;;;;;;;;;;;;;8.55;48.99;99866.47;6173725;23;20684;-77
2021/01/28 03:04:54;;;;;;;;;;;;;;;8.63;47.74;99867.94;6171525;23;19963;-77
2021/01/28 03:07:28;;;;;;;;;;;;;;;8.75;46.53;99871.09;6174612;23;19971;-78
2021/01/28 03:09:56;;;;;;;;;;;;;;;8.82;45.73;99864.69;6174024;23;19991;-78
2021/01/28 03:12:25;;;;;;;;;;;;;;;8.84;44.73;99861.97;6179324;23;20307;-78
2021/01/28 03:14:59;;;;;;;;;;;;;;;8.80;44.94;99866.53;6176262;23;19920;-78
2021/01/28 03:17:27;;;;;;;;;;;;;;;8.62;45.68;99868.84;6147479;23;19999;-78
2021/01/28 03:19:59;;;;;;;;;;;;;;;8.51;46.24;99875.38;6171728;23;19920;-78
2021/01/28 03:22:27;;;;;;;;;;;;;;;8.44;47.36;99877.34;6169531;23;19955;-78
2021/01/28 03:25:15;;;;;;;;;;;;;;;8.38;47.27;99888.06;6171596;23;19929;-78
2021/01/28 03:27:42;;;;;;;;;;;;;;;8.34;47.71;99889.97;6169754;23;19947;-77
2021/01/28 03:30:14;;;;;;;;;;;;;;;8.26;48.32;99886.69;6170178;23;19934;-78
2021/01/28 03:32:41;;;;;;;;;;;;;;;8.26;48.39;99891.94;6165352;23;20247;-78
2021/01/28 03:35:08;;;;;;;;;;;;;;;8.23;49.02;99892.06;6166310;23;21441;-78
2021/01/28 03:37:35;;;;;;;;;;;;;;;8.22;49.05;99896.47;6171184;23;20367;-78
2021/01/28 03:40:03;;;;;;;;;;;;;;;8.20;49.38;99895.66;6172310;23;19924;-78
2021/01/28 03:42:30;;;;;;;;;;;;;;;8.18;49.46;99888.69;6173246;23;19944;-78
2021/01/28 03:44:57;;;;;;;;;;;;;;;8.11;49.70;99883.63;6174476;23;20379;-78
2021/01/28 03:47:31;;;;;;;;;;;;;;;8.12;50.06;99895.03;6141942;23;20303;-78
2021/01/28 03:50:14;;;;;;;;;;;;;;;8.10;49.87;99889.81;6171724;23;20027;-78
2021/01/28 03:52:57;;;;;;;;;;;;;;;8.09;50.48;99896.00;6171251;23;19931;-78
2021/01/28 03:55:48;;;;;;;;;;;;;;;8.06;50.54;99887.31;6165683;23;20019;-78
2021/01/28 03:58:15;;;;;;;;;;;;;;;8.05;50.47;99878.56;6142578;23;20217;-78
2021/01/28 04:00:46;;;;;;;;;;;;;;;8.02;50.82;99883.91;6135919;23;19928;-78
2021/01/28 04:03:18;;;;;;;;;;;;;;;8.02;50.85;99893.59;6137569;23;19928;-78
2021/01/28 04:06:04;;;;;;;;;;;;;;;7.97;50.92;99884.06;6146697;23;19931;-78
2021/01/28 04:08:50;;;;;;;;;;;;;;;7.97;51.09;99885.81;6148920;23;19926;-78
2021/01/28 04:11:39;;;;;;;;;;;;;;;7.94;51.45;99876.22;6144279;23;20348;-78
2021/01/28 04:14:27;;;;;;;;;;;;;;;7.93;51.19;99881.53;6161090;23;20120;-78
2021/01/28 04:16:54;;;;;;;;;;;;;;;7.92;51.50;99869.31;6134863;23;20610;-78
2021/01/28 04:19:22;;;;;;;;;;;;;;;7.90;51.38;99876.38;6165716;23;20028;-78
2021/01/28 04:21:49;;;;;;;;;;;;;;;7.89;51.13;99875.53;6166502;23;19920;-78
2021/01/28 04:24:16;;;;;;;;;;;;;;;7.86;51.40;99870.34;6167779;23;19925;-77
2021/01/28 04:26:52;;;;;;;;;;;;;;;7.86;51.58;99874.75;6173011;23;19920;-78
2021/01/28 04:29:31;;;;;;;;;;;;;;;7.86;51.44;99869.50;6164729;23;19930;-78
2021/01/28 04:32:17;;;;;;;;;;;;;;;7.87;51.38;99864.16;6160202;23;19931;-77
2021/01/28 04:35:12;;;;;;;;;;;;;;;7.87;51.71;99866.81;6142179;23;19928;-78
2021/01/28 04:37:39;;;;;;;;;;;;;;;7.89;51.72;99869.38;6146582;23;19921;-78
2021/01/28 04:40:17;;;;;;;;;;;;;;;7.91;51.69;99872.84;6170840;23;19994;-77
2021/01/28 04:42:44;;;;;;;;;;;;;;;7.94;51.65;99867.47;6138765;23;20379;-78
2021/01/28 04:45:19;;;;;;;;;;;;;;;7.95;51.81;99867.44;6164591;23;19920;-78
2021/01/28 04:47:49;;;;;;;;;;;;;;;7.99;51.45;99865.56;6168617;23;20020;-79
2021/01/28 04:50:37;;;;;;;;;;;;;;;8.02;51.73;99865.47;6143453;23;19998;-78
2021/01/28 04:53:20;;;;;;;;;;;;;;;8.04;51.31;99874.19;6165871;23;19934;-78
2021/01/28 04:56:11;;;;;;;;;;;;;;;8.05;51.71;99867.13;6156307;23;19925;-78
2021/01/28 04:58:41;;;;;;;;;;;;;;;8.08;51.24;99877.59;6165449;23;19967;-78
2021/01/28 05:01:20;;;;;;;;;;;;;;;8.07;51.59;99868.81;6143670;23;19920;-78
2021/01/28 05:04:08;;;;;;;;;;;;;;;8.08;51.05;99873.19;6173482;23;19947;-78
2021/01/28 05:06:57;;;;;;;;;;;;;;;8.07;51.67;99868.81;6171414;23;19995;-78
2021/01/28 05:10:05;;;;;;;;;;;;;;;8.07;51.29;99866.19;6122587;23;19924;-78
2021/01/28 05:13:07;;;;;;;;;;;;;;;8.07;51.49;99870.59;6073140;23;19925;-79
2021/01/28 05:16:18;;;;;;;;;;;;;;;8.04;51.56;99862.81;6171014;23;19924;-79
2021/01/28 05:19:07;;;;;;;;;;;;;;;8.04;51.79;99873.34;6097509;23;19974;-79
2021/01/28 05:22:04;;;;;;;;;;;;;;;8.04;51.79;99874.19;6169500;23;20038;-78
2021/01/28 05:24:38;;;;;;;;;;;;;;;8.01;51.91;99871.66;6170604;23;19948;-78
2021/01/28 05:27:16;;;;;;;;;;;;;;;8.01;51.39;99866.41;6162977;23;19932;-78
2021/01/28 05:29:44;;;;;;;;;;;;;;;8.00;52.10;99866.41;6169586;23;19947;-78
2021/01/28 05:32:31;;;;;;;;;;;;;;;8.00;51.42;99862.03;6170566;23;19947;-78
2021/01/28 05:35:22;;;;;;;;;;;;;;;7.96;52.16;99863.88;6172690;23;20458;-79
2021/01/28 05:38:26;;;;;;;;;;;;;;;7.96;51.61;99860.41;6170092;23;19990;-78
2021/01/28 05:41:26;;;;;;;;;;;;;;;7.94;51.88;99852.53;6163826;23;20347;-79
2021/01/28 05:43:54;;;;;;;;;;;;;;;7.92;51.92;99870.16;6166664;23;19924;-79
2021/01/28 05:46:26;;;;;;;;;;;;;;;7.92;51.80;99869.31;6169178;23;19970;-78
2021/01/28 05:49:03;;;;;;;;;;;;;;;7.89;52.08;99865.00;6171397;23;19925;-79
2021/01/28 05:51:52;;;;;;;;;;;;;;;7.88;52.37;99876.44;6171961;23;20382;-79
2021/01/28 05:55:03;;;;;;;;;;;;;;;7.86;52.05;99870.34;6138573;23;19928;-77
2021/01/28 05:57:43;;;;;;;;;;;;;;;7.85;52.15;99873.88;6137847;23;19975;-78
2021/01/28 06:00:15;;;;;;;;;;;;;;;7.82;52.11;99874.81;6168973;23;20236;-77
2021/01/28 06:03:01;;;;;;;;;;;;;;;7.82;52.58;99874.81;6158356;23;20078;-78
2021/01/28 06:06:00;;;;;;;;;;;;;;;7.80;52.31;99875.78;6116005;23;20019;-79
2021/01/28 06:08:49;;;;;;;;;;;;;;;7.79;52.21;99876.72;6157570;23;20293;-84
2021/01/28 06:11:31;;;;;;;;;;;;;;;7.77;52.71;99875.88;6162009;23;19994;-84
2021/01/28 06:14:29;;;;;;;;;;;;;;;7.75;52.65;99875.09;6145846;23;20001;-79
2021/01/28 06:17:18;;;;;;;;;;;;;;;7.73;52.35;99882.16;6176117;23;19943;-76
2021/01/28 06:20:16;;;;;;;;;;;;;;;7.70;52.38;99877.84;6177478;23;19974;-76
2021/01/28 06:22:47;;;;;;;;;;;;;;;7.70;52.08;99884.88;6146311;23;19970;-76
2021/01/28 06:25:39;;;;;;;;;;;;;;;7.68;52.48;99879.63;6165421;23;20243;-75
2021/01/28 06:28:13;;;;;;;;;;;;;;;7.69;52.56;99885.78;6175515;23;19924;-77
2021/01/28 06:30:59;;;;;;;;;;;;;;;7.70;52.62;99888.38;6175878;23;19931;-77
2021/01/28 06:33:55;;;;;;;;;;;;;;;7.73;52.59;99876.88;6177924;23;19999;-78
2021/01/28 06:36:55;;;;;;;;;;;;;;;7.75;52.51;99875.94;6170619;23;19975;-80
2021/01/28 06:39:47;;;;;;;;;;;;;;;7.79;52.01;99872.31;6168886;23;19963;-78
2021/01/28 06:42:49;;;;;;;;;;;;;;;7.82;52.27;99887.16;6135590;23;19924;-79
2021/01/28 06:45:41;;;;;;;;;;;;;;;7.85;52.23;99878.28;6176745;23;20466;-81
2021/01/28 06:48:21;;;;;;;;;;;;;;;7.89;52.04;99882.56;6176480;23;20370;-78
2021/01/28 06:51:06;;;;;;;;;;;;;;;7.91;52.23;99884.22;6174029;23;20463;-78
2021/01/28 06:53:43;;;;;;;;;;;;;;;7.95;52.04;99885.88;6168440;23;19924;-78
2021/01/28 06:56:27;;;;;;;;;;;;;;;8.12;51.97;99892.41;6179401;23;19926;-80
2021/01/28 06:59:20;;;;;;;;;;;;;;;8.18;55.08;99886.94;6166062;23;20489;-79
2021/01/28 07:01:59;;;;;;;;;;;;;;;8.18;54.74;99892.22;6175151;23;21819;-79
2021/01/28 07:04:48;;;;;;;;;;;;;;;8.18;54.50;99886.06;6174073;23;19920;-79
2021/01/28 07:07:22;;;;;;;;;;;;;;;8.17;54.51;99885.22;6168346;23;20264;-79
2021/01/28 07:10:18;;;;;;;;;;;;;;;8.15;54.29;99892.28;6134894;23;19948;-79
2021/01/28 07:13:04;;;;;;;;;;;;;;;8.12;54.07;99887.97;6174378;23;19959;-79
2021/01/28 07:15:56;;;;;;;;;;;;;;;8.11;54.13;99893.31;6168257;23;19995;-78
2021/01/28 07:18:38;;;;;;;;;;;;;;;8.10;53.38;99895.09;6170037;23;19924;-79
2021/01/28 07:21:06;;;;;;;;;;;;;;;8.09;53.25;99885.44;6164227;23;19928;-79
2021/01/28 07:23:37;;;;;;;;;;;;;;;8.10;53.56;99891.56;6164058;23;19999;-79
2021/01/28 07:26:10;;;;;;;;;;;;;;;8.08;53.37;99898.69;6176331;23;20390;-78
2021/01/28 07:28:38;;;;;;;;;;;;;;;8.09;53.44;99885.44;6170570;23;20019;-78
2021/01/28 07:31:19;;;;;;;;;;;;;;;8.10;52.92;99894.19;6175132;23;20007;-79
2021/01/28 07:33:50;;;;;;;;;;;;;;;8.07;53.22;99894.31;6170211;23;19924;-78
2021/01/28 07:36:47;;;;;;;;;;;;;;;8.06;53.00;99896.06;6161564;23;20023;-78
2021/01/28 07:39:37;;;;;;;;;;;;;;;8.07;52.38;99897.78;6160878;23;19978;-78
2021/01/28 07:42:26;;;;;;;;;;;;;;;8.09;52.89;99903.88;6172393;23;20382;-79
2021/01/28 07:45:29;;;;;;;;;;;;;;;8.09;52.48;99901.25;6169495;23;20411;-78
2021/01/28 07:48:27;;;;;;;;;;;;;;;8.09;52.80;99909.16;6168298;23;20017;-79
2021/01/28 07:51:29;;;;;;;;;;;;;;;8.09;52.34;99909.16;6160856;23;20452;-78
2021/01/28 07:53:56;;;;;;;;;;;;;;;8.12;52.43;99909.06;6170625;23;20372;-78
2021/01/28 07:56:43;;;;;;;;;;;;;;;8.20;52.31;99905.34;6168286;23;20004;-78
2021/01/28 07:59:13;;;;;;;;;;;;;;;8.25;51.56;99909.53;6176051;23;19999;-79
2021/01/28 08:01:41;;;;;;;;;;;;;;;8.27;51.99;99899.84;6149412;23;19935;-78
2021/01/28 08:04:14;;;;;;;;;;;;;;;8.25;52.10;99911.31;6168065;23;19924;-79
2021/01/28 08:06:42;;;;;;;;;;;;;;;8.20;51.97;99905.34;6162575;23;19974;-78
2021/01/28 08:09:11;;;;;;;;;;;;;;;8.18;51.89;99899.25;6171000;23;19924;-78
2021/01/28 08:11:38;;;;;;;;;;;;;;;8.18;51.79;99896.59;6168492;23;20339;-78
2021/01/28 08:14:06;;;;;;;;;;;;;;;8.22;51.66;99903.50;6172589;23;19931;-79
2021/01/28 08:16:33;;;;;;;;;;;;;;;8.20;52.04;99906.19;6170003;23;19924;-79
2021/01/28 08:19:02;;;;;;;;;;;;;;;8.21;51.54;99905.28;6163389;23;19943;-80
2021/01/28 08:21:31;;;;;;;;;;;;;;;8.21;51.59;99901.75;6169367;23;19930;-79
2021/01/28 08:24:10;;;;;;;;;;;;;;;8.33;51.08;99895.28;6171351;23;19955;-79
2021/01/28 08:26:39;;;;;;;;;;;;;;;8.48;50.99;99892.16;6170739;23;19998;-79
2021/01/28 08:29:11;;;;;;;;;;;;;;;8.64;50.81;99895.16;6170584;23;20800;-80
2021/01/28 08:31:39;;;;;;;;;;;;;;;8.74;50.00;99896.56;6163857;23;20303;-78
2021/01/28 08:34:13;;;;;;;;;;;;;;;8.88;50.21;99892.63;6164551;23;20426;-80
2021/01/28 08:36:42;;;;;;;;;;;;;;;9.09;49.34;99905.06;6169955;23;20003;-78
2021/01/28 08:39:11;;;;;;;;;;;;;;;9.20;49.52;99895.94;6170349;23;19920;-79
2021/01/28 08:41:38;;;;;;;;;;;;;;;9.16;49.72;99899.59;6173128;23;20289;-79
2021/01/28 08:44:06;;;;;;;;;;;;;;;9.49;48.79;99900.16;6174154;23;19928;-79
2021/01/28 08:46:33;;;;;;;;;;;;;;;9.85;46.74;99897.06;6167945;23;19954;-79
2021/01/28 08:49:05;;;;;;;;;;;;;;;10.21;44.98;99896.56;6168058;23;20030;-79
2021/01/28 08:51:36;;;;;;;;;;;;;;;10.66;43.24;99904.53;6170234;23;20265;-77
2021/01/28 08:54:06;;;;;;;;;;;;;;;11.19;41.42;99900.53;6169149;23;19944;-78
2021/01/28 08:56:37;;;;;;;;;;;;;;;11.40;40.57;99899.59;6169560;23;19924;-78
2021/01/28 08:59:05;;;;;;;;;;;;;;;11.24;40.70;99906.47;6166045;23;19924;-77
2021/01/28 09:01:39;;;;;;;;;;;;;;;11.36;40.54;99895.38;6162313;23;19928;-76
2021/01/28 09:04:11;;;;;;;;;;;;;;;11.16;41.55;99904.16;6175192;23;19920;-78
2021/01/28 09:06:48;;;;;;;;;;;;;;;11.22;41.60;99909.19;6149070;23;19924;-78
2021/01/28 09:09:20;;;;;;;;;;;;;;;11.07;42.49;99900.13;6173446;23;20089;-77
2021/01/28 09:11:49;;;;;;;;;;;;;;;10.86;43.34;99896.63;6168301;23;20403;-77
2021/01/28 09:14:28;;;;;;;;;;;;;;;11.18;42.53;99898.81;6165194;23;19931;-77
2021/01/28 09:16:56;;;;;;;;;;;;;;;11.64;41.72;99904.72;6163649;23;19968;-77
2021/01/28 09:19:23;;;;;;;;;;;;;;;13.82;37.34;99890.50;6168332;23;19924;-77
2021/01/28 09:21:52;;;;;;;;;;;;;;;13.21;38.54;99892.78;6168142;23;20302;-77
2021/01/28 09:24:21;;;;;;;;;;;;;;;14.64;35.88;99880.63;6167034;23;19951;-77
2021/01/28 09:27:04;;;;;;;;;;;;;;;17.06;31.32;99876.13;6167964;23;19959;-78
2021/01/28 09:29:32;;;;;;;;;;;;;;;14.55;36.00;99882.84;6161370;23;20563;-78
2021/01/28 09:32:04;;;;;;;;;;;;;;;13.29;38.87;99885.28;6164872;23;19931;-78
2021/01/28 09:34:33;;;;;;;;;;;;;;;12.31;41.43;99894.56;6175155;23;19928;-78
2021/01/28 09:37:01;;;;;;;;;;;;;;;11.87;42.77;99894.84;6171940;23;20829;-78
2021/01/28 09:39:30;;;;;;;;;;;;;;;11.59;43.45;99896.97;6168503;23;19924;-78
2021/01/28 09:42:10;;;;;;;;;;;;;;;11.39;43.91;99892.56;6166299;23;19940;-78
2021/01/28 09:44:39;;;;;;;;;;;;;;;11.20;44.26;99886.38;6169378;23;19928;-78
2021/01/28 09:47:17;;;;;;;;;;;;;;;11.04;44.96;99887.03;6175980;23;19924;-78
2021/01/28 09:49:45;;;;;;;;;;;;;;;10.92;45.28;99898.13;6176604;23;20661;-78
2021/01/28 09:52:18;;;;;;;;;;;;;;;10.79;45.32;99893.38;6176474;23;19962;-78
2021/01/28 09:54:48;;;;;;;;;;;;;;;10.70;45.49;99899.03;6174234;23;19955;-76
2021/01/28 09:57:16;;;;;;;;;;;;;;;10.65;45.87;99897.50;6170866;23;20312;-78
2021/01/28 09:59:43;;;;;;;;;;;;;;;10.59;46.02;99902.13;6171595;23;19979;-77
2021/01/28 10:02:14;;;;;;;;;;;;;;;10.54;45.91;99900.59;6174571;23;19920;-78
2021/01/28 10:04:41;;;;;;;;;;;;;;;10.52;46.14;99913.88;6179278;23;19931;-78
2021/01/28 10:07:08;;;;;;;;;;;;;;;10.50;46.05;99901.66;6178314;23;20332;-78
2021/01/28 10:09:35;;;;;;;;;;;;;;;10.49;45.98;99907.84;6177980;23;20359;-79
2021/01/28 10:12:02;;;;;;;;;;;;;;;10.51;45.91;99901.59;6170221;23;19928;-78
2021/01/28 10:14:30;;;;;;;;;;;;;;;10.51;45.98;99906.88;6177994;23;19982;-78
2021/01/28 10:16:57;;;;;;;;;;;;;;;10.49;46.07;99915.78;6177577;23;20036;-78
2021/01/28 10:19:24;;;;;;;;;;;;;;;10.45;46.10;99921.22;6179149;23;19931;-78
2021/01/28 10:21:51;;;;;;;;;;;;;;;10.41;46.11;99903.75;6177716;23;19924;-78
2021/01/28 10:24:18;;;;;;;;;;;;;;;10.38;45.69;99916.22;6173153;23;19956;-78
2021/01/28 10:26:45;;;;;;;;;;;;;;;10.36;46.32;99920.69;6172631;23;19948;-78
2021/01/28 10:29:12;;;;;;;;;;;;;;;10.34;46.20;99910.16;6178589;23;19924;-79
2021/01/28 10:31:41;;;;;;;;;;;;;;;10.35;45.75;99911.00;6177673;23;20002;-78
2021/01/28 10:34:08;;;;;;;;;;;;;;;10.38;45.77;99909.13;6177296;23;19924;-77
2021/01/28 10:36:35;;;;;;;;;;;;;;;10.38;45.61;99910.94;6178667;23;19924;-79
2021/01/28 10:39:02;;;;;;;;;;;;;;;10.39;45.83;99905.59;6172722;23;19935;-79
2021/01/28 10:41:29;;;;;;;;;;;;;;;10.42;45.56;99902.81;6172855;23;19920;-79
2021/01/28 10:43:57;;;;;;;;;;;;;;;10.44;45.41;99915.97;6169310;23;19930;-78
2021/01/28 10:46:24;;;;;;;;;;;;;;;10.46;45.48;99914.13;6169033;23;19927;-78
2021/01/28 10:48:52;;;;;;;;;;;;;;;10.46;45.60;99916.78;6169753;23;19951;-77
2021/01/28 10:51:19;;;;;;;;;;;;;;;10.47;45.42;99921.13;6169620;23;19924;-78
2021/01/28 10:53:46;;;;;;;;;;;;;;;10.42;45.37;99916.03;6164268;23;19931;-77
2021/01/28 10:56:14;;;;;;;;;;;;;;;10.40;45.13;99922.28;6132034;23;19924;-78
2021/01/28 10:58:41;;;;;;;;;;;;;;;10.39;45.65;99926.72;6140445;23;19928;-76
2021/01/28 11:01:08;;;;;;;;;;;;;;;10.39;45.22;99917.94;6139332;23;19924;-78
2021/01/28 11:03:36;;;;;;;;;;;;;;;10.44;44.80;99916.84;6139968;23;19928;-76
2021/01/28 11:06:04;;;;;;;;;;;;;;;10.51;44.69;99917.44;6141711;23;19931;-77
2021/01/28 11:08:31;;;;;;;;;;;;;;;10.51;44.69;99919.25;6137425;23;19925;-78
2021/01/28 11:10:58;;;;;;;;;;;;;;;10.54;44.79;99912.03;6139115;23;19928;-77
2021/01/28 11:13:25;;;;;;;;;;;;;;;10.53;44.91;99918.25;6145428;23;20344;-78
2021/01/28 11:15:51;;;;;;;;;;;;;;;10.53;44.73;99923.56;6141665;23;19999;-78
2021/01/28 11:18:18;;;;;;;;;;;;;;;10.57;44.71;99916.31;6141514;23;19925;-76
2021/01/28 11:20:45;;;;;;;;;;;;;;;10.61;44.35;99912.63;6141197;23;19932;-79
2021/01/28 11:23:13;;;;;;;;;;;;;;;10.82;44.17;99912.69;6156685;23;20624;-78
2021/01/28 11:25:40;;;;;;;;;;;;;;;10.98;43.73;99910.25;6144635;23;19924;-77
2021/01/28 11:28:07;;;;;;;;;;;;;;;11.00;43.57;99919.00;6147620;23;19925;-78
2021/01/28 11:30:35;;;;;;;;;;;;;;;11.11;43.62;99908.81;6138048;23;20001;-77
2021/01/28 11:33:03;;;;;;;;;;;;;;;11.21;43.16;99919.84;6139478;23;20399;-76
2021/01/28 11:35:31;;;;;;;;;;;;;;;11.18;43.46;99910.25;6137977;23;20332;-76
2021/01/28 11:37:58;;;;;;;;;;;;;;;11.67;42.23;99904.56;6132647;23;20494;-78
2021/01/28 11:40:27;;;;;;;;;;;;;;;11.59;42.41;99909.38;6138037;23;20426;-77
2021/01/28 11:42:54;;;;;;;;;;;;;;;11.48;42.93;99898.38;6139498;23;19924;-78
2021/01/28 11:45:22;;;;;;;;;;;;;;;11.41;43.16;99900.44;6138177;23;19936;-78
2021/01/28 11:47:49;;;;;;;;;;;;;;;11.59;43.06;99904.06;6139422;23;19931;-77
2021/01/28 11:50:17;;;;;;;;;;;;;;;11.72;42.23;99901.72;6134276;23;20000;-77
2021/01/28 11:52:45;;;;;;;;;;;;;;;11.83;42.10;99899.44;6134080;23;19931;-77
2021/01/28 11:55:14;;;;;;;;;;;;;;;12.27;41.46;99896.50;6164783;23;20390;-76
2021/01/28 11:57:41;;;;;;;;;;;;;;;12.82;40.08;99889.44;6169466;23;20011;-77
2021/01/28 12:00:10;;;;;;;;;;;;;;;12.68;40.50;99895.41;6169158;23;20335;-77
2021/01/28 12:02:37;;;;;;;;;;;;;;;13.66;38.65;99887.78;6168908;23;20248;-77
2021/01/28 12:05:05;;;;;;;;;;;;;;;13.78;37.95;99885.31;6161724;23;19931;-76
2021/01/28 12:07:32;;;;;;;;;;;;;;;13.48;38.72;99877.22;6163137;23;20268;-78
2021/01/28 12:09:59;;;;;;;;;;;;;;;14.22;37.79;99881.16;6167519;23;20343;-78
2021/01/28 12:12:27;;;;;;;;;;;;;;;14.80;36.79;99877.91;6170219;23;19927;-77
2021/01/28 12:14:54;;;;;;;;;;;;;;;15.02;35.94;99870.34;6168522;23;20309;-76
2021/01/28 12:17:22;;;;;;;;;;;;;;;15.19;35.96;99866.69;6167606;23;19925;-77
2021/01/28 12:19:49;;;;;;;;;;;;;;;15.88;34.79;99860.72;6164355;23;20012;-78
2021/01/28 12:22:16;;;;;;;;;;;;;;;15.10;36.22;99873.44;6164134;23;20010;-86
2021/01/28 12:24:43;;;;;;;;;;;;;;;15.12;36.79;99867.16;6163110;23;19968;-77
2021/01/28 12:27:11;;;;;;;;;;;;;;;14.82;37.27;99874.22;6168265;23;19947;-77
2021/01/28 12:29:39;;;;;;;;;;;;;;;15.01;36.97;99867.78;6172100;23;19971;-78
2021/01/28 12:32:07;;;;;;;;;;;;;;;15.83;35.67;99866.34;6177342;23;20290;-77
2021/01/28 12:34:34;;;;;;;;;;;;;;;15.18;36.76;99861.44;6159899;23;19935;-77
2021/01/28 12:37:02;;;;;;;;;;;;;;;15.02;37.16;99865.03;6157833;23;19932;-77
2021/01/28 12:39:29;;;;;;;;;;;;;;;14.62;38.01;99862.06;6164427;23;19929;-76
2021/01/28 12:41:56;;;;;;;;;;;;;;;14.13;39.18;99870.16;6171661;23;19974;-77
2021/01/28 12:44:23;;;;;;;;;;;;;;;13.80;40.01;99866.63;6175966;23;20333;-77
2021/01/28 12:46:50;;;;;;;;;;;;;;;13.52;40.72;99870.78;6172740;23;19924;-76
2021/01/28 12:49:17;;;;;;;;;;;;;;;13.61;40.42;99866.78;6160883;23;19928;-76
2021/01/28 12:51:44;;;;;;;;;;;;;;;13.47;40.83;99864.03;6164030;23;19952;-77
2021/01/28 12:54:11;;;;;;;;;;;;;;;13.71;40.24;99880.44;6168144;23;19925;-77
2021/01/28 12:56:38;;;;;;;;;;;;;;;13.76;39.90;99873.06;6165901;23;19924;-77
2021/01/28 12:59:05;;;;;;;;;;;;;;;14.76;37.79;99863.91;6171151;23;19955;-77
2021/01/28 13:01:32;;;;;;;;;;;;;;;14.24;38.97;99865.97;6147340;23;20027;-78
2021/01/28 13:03:59;;;;;;;;;;;;;;;13.66;40.32;99864.75;6167908;23;20300;-77
2021/01/28 13:06:27;;;;;;;;;;;;;;;14.12;39.17;99864.00;6167019;23;19924;-77
2021/01/28 13:08:54;;;;;;;;;;;;;;;14.59;38.25;99856.88;6171317;23;19995;-77
2021/01/28 13:11:21;;;;;;;;;;;;;;;14.55;38.41;99860.69;6175724;23;19924;-79
2021/01/28 13:13:48;;;;;;;;;;;;;;;14.32;38.88;99857.53;6175703;23;19962;-77
2021/01/28 13:16:16;;;;;;;;;;;;;;;13.86;40.01;99857.47;6164490;23;20416;-78
2021/01/28 13:18:43;;;;;;;;;;;;;;;13.61;40.71;99867.63;6164321;23;19947;-78
2021/01/28 13:21:10;;;;;;;;;;;;;;;13.33;40.97;99856.75;6166718;23;20599;-79
2021/01/28 13:23:37;;;;;;;;;;;;;;;13.06;41.43;99858.09;6176281;23;19927;-78
2021/01/28 13:26:05;;;;;;;;;;;;;;;12.87;42.14;99850.25;6174981;23;20066;-78
2021/01/28 13:28:32;;;;;;;;;;;;;;;12.65;42.67;99860.22;6168934;23;20513;-78